createdAt,value
2023-04-18T00:00:17.484Z,958.4625
2023-04-18T00:01:18.111Z,958.4602
2023-04-18T00:02:19.067Z,958.4469
2023-04-18T00:03:19.312Z,958.4337
2023-04-18T00:04:21.362Z,958.4326
2023-04-18T00:05:22.206Z,958.4241
2023-04-18T00:06:23.030Z,958.4164
2023-04-18T00:07:23.928Z,958.4327
2023-04-18T00:08:24.270Z,958.4204
2023-04-18T00:09:25.142Z,958.4160
2023-04-18T00:10:25.793Z,958.4151
2023-04-18T00:11:26.466Z,958.4442
2023-04-18T00:12:27.043Z,958.4424
2023-04-18T00:13:27.632Z,958.4434
2023-04-18T00:14:27.666Z,958.4512
2023-04-18T00:15:28.487Z,958.4576
2023-04-18T00:16:29.165Z,958.4567
2023-04-18T00:17:30.044Z,958.4620
2023-04-18T00:18:30.556Z,958.4753
2023-04-18T00:19:31.077Z,958.4653
2023-04-18T00:20:31.643Z,958.4556
2023-04-18T00:21:32.175Z,958.4658
2023-04-18T00:22:32.802Z,958.4471
2023-04-18T00:23:33.779Z,958.4456
2023-04-18T00:24:34.800Z,958.4447
2023-04-18T00:25:35.404Z,958.4511
2023-04-18T00:26:36.041Z,958.4522
2023-04-18T00:27:36.436Z,958.4480
2023-04-18T00:28:37.133Z,958.4302
2023-04-18T00:29:37.516Z,958.4106
2023-04-18T00:30:38.121Z,958.3909
2023-04-18T00:31:39.318Z,958.3811
2023-04-18T00:32:39.911Z,958.3618
2023-04-18T00:33:40.637Z,958.3631
2023-04-18T00:34:41.214Z,958.3531
2023-04-18T00:35:41.699Z,958.3513
2023-04-18T00:36:42.260Z,958.3593
2023-04-18T00:37:42.753Z,958.3724
2023-04-18T00:38:43.298Z,958.3847
2023-04-18T00:39:43.814Z,958.3749
2023-04-18T00:40:44.198Z,958.3666
2023-04-18T00:41:44.807Z,958.3738
2023-04-18T00:42:45.378Z,958.3820
2023-04-18T00:43:45.794Z,958.3862
2023-04-18T00:44:46.828Z,958.3740
2023-04-18T00:45:47.215Z,958.3658
2023-04-18T00:46:48.415Z,958.3673
2023-04-18T00:47:49.289Z,958.3671
2023-04-18T00:48:49.996Z,958.3575
2023-04-18T00:49:50.881Z,958.3569
2023-04-18T00:50:51.549Z,958.3613
2023-04-18T00:51:52.029Z,958.3655
2023-04-18T00:52:52.636Z,958.3573
2023-04-18T00:53:53.106Z,958.3493
2023-04-18T00:54:54.227Z,958.3422
2023-04-18T00:55:54.856Z,958.3433
2023-04-18T00:56:55.330Z,958.3469
2023-04-18T00:57:55.883Z,958.3389
2023-04-18T00:58:56.453Z,958.3307
2023-04-18T00:59:56.843Z,958.3322
2023-04-18T01:00:57.435Z,958.3247
2023-04-18T01:01:58.110Z,958.3318
2023-04-18T01:02:58.362Z,958.3223
2023-04-18T01:03:58.449Z,958.3200
2023-04-18T01:04:59.164Z,958.3027
2023-04-18T01:05:59.850Z,958.2931
2023-04-18T01:07:00.416Z,958.2900
2023-04-18T01:08:00.987Z,958.2751
2023-04-18T01:09:01.727Z,958.2751
2023-04-18T01:10:02.471Z,958.2638
2023-04-18T01:11:02.850Z,958.2380
2023-04-18T01:12:03.424Z,958.2320
2023-04-18T01:13:03.849Z,958.2293
2023-04-18T01:14:04.354Z,958.2244
2023-04-18T01:15:04.885Z,958.2213
2023-04-18T01:16:05.503Z,958.2126
2023-04-18T01:17:06.685Z,958.2184
2023-04-18T01:18:07.452Z,958.2140
2023-04-18T01:19:07.907Z,958.2133
2023-04-18T01:20:08.566Z,958.2025
2023-04-18T01:21:09.306Z,958.2027
2023-04-18T01:22:09.901Z,958.1927
2023-04-18T01:23:10.461Z,958.1945
2023-04-18T01:24:11.154Z,958.1800
2023-04-18T01:25:11.537Z,958.1722
2023-04-18T01:26:12.217Z,958.1580
2023-04-18T01:27:12.798Z,958.1549
2023-04-18T01:28:13.393Z,958.1382
2023-04-18T01:29:13.762Z,958.1124
2023-04-18T01:30:14.823Z,958.0977
2023-04-18T01:31:15.498Z,958.0658
2023-04-18T01:32:16.102Z,958.0634
2023-04-18T01:33:17.039Z,958.0480
2023-04-18T01:34:17.785Z,958.0420
2023-04-18T01:35:18.297Z,958.0260
2023-04-18T01:36:18.853Z,958.0204
2023-04-18T01:37:19.263Z,958.0273
2023-04-18T01:38:19.751Z,958.0122
2023-04-18T01:39:20.452Z,957.9998
2023-04-18T01:40:20.876Z,957.9907
2023-04-18T01:41:21.477Z,957.9835
2023-04-18T01:42:22.411Z,957.9804
2023-04-18T01:43:22.849Z,957.9751
2023-04-18T01:44:23.448Z,957.9589
2023-04-18T01:45:23.894Z,957.9482
2023-04-18T01:46:24.678Z,957.9498
2023-04-18T01:47:25.704Z,957.9576
2023-04-18T01:48:26.235Z,957.9503
2023-04-18T01:49:26.869Z,957.9271
2023-04-18T01:50:27.439Z,957.9131
2023-04-18T01:51:27.864Z,957.9197
2023-04-18T01:52:28.612Z,957.9269
2023-04-18T01:53:28.941Z,957.9047
2023-04-18T01:54:29.963Z,957.9051
2023-04-18T01:55:30.510Z,957.9020
2023-04-18T01:56:30.941Z,957.8965
2023-04-18T01:57:31.684Z,957.8976
2023-04-18T01:58:32.328Z,957.8878
2023-04-18T01:59:32.645Z,957.8914
2023-04-18T02:00:33.259Z,957.8891
2023-04-18T02:01:33.913Z,957.8938
2023-04-18T02:02:35.033Z,957.8884
2023-04-18T02:03:35.583Z,957.8805
2023-04-18T02:04:35.452Z,957.8774
2023-04-18T02:05:36.002Z,957.8589
2023-04-18T02:06:36.559Z,957.8500
2023-04-18T02:07:37.117Z,957.8422
2023-04-18T02:08:37.766Z,957.8482
2023-04-18T02:09:38.195Z,957.8298
2023-04-18T02:10:38.698Z,957.8358
2023-04-18T02:11:39.333Z,957.8131
2023-04-18T02:12:39.748Z,957.8178
2023-04-18T02:13:40.315Z,957.8011
2023-04-18T02:14:40.862Z,957.8020
2023-04-18T02:15:41.204Z,957.8011
2023-04-18T02:16:42.132Z,957.7880
2023-04-18T02:17:42.829Z,957.7771
2023-04-18T02:18:43.539Z,957.7844
2023-04-18T02:19:44.177Z,957.7676
2023-04-18T02:20:44.785Z,957.7707
2023-04-18T02:21:45.335Z,957.7640
2023-04-18T02:22:45.904Z,957.7794
2023-04-18T02:23:46.409Z,957.7780
2023-04-18T02:24:47.230Z,957.7783
2023-04-18T02:25:47.730Z,957.7773
2023-04-18T02:26:48.484Z,957.7725
2023-04-18T02:27:49.214Z,957.7714
2023-04-18T02:28:49.989Z,957.7620
2023-04-18T02:29:50.637Z,957.7480
2023-04-18T02:30:51.590Z,957.7200
2023-04-18T02:31:52.278Z,957.7338
2023-04-18T02:32:53.465Z,957.7313
2023-04-18T02:33:53.957Z,957.7328
2023-04-18T02:34:54.756Z,957.7369
2023-04-18T02:35:55.358Z,957.7340
2023-04-18T02:36:55.815Z,957.7416
2023-04-18T02:37:56.433Z,957.7409
2023-04-18T02:38:56.981Z,957.7355
2023-04-18T02:39:57.377Z,957.7300
2023-04-18T02:40:58.040Z,957.7253
2023-04-18T02:41:58.415Z,957.7142
2023-04-18T02:42:58.990Z,957.7202
2023-04-18T02:43:59.633Z,957.7175
2023-04-18T02:45:00.117Z,957.7169
2023-04-18T02:46:00.873Z,957.7071
2023-04-18T02:47:01.689Z,957.6984
2023-04-18T02:48:02.679Z,957.6953
2023-04-18T02:49:03.556Z,957.6971
2023-04-18T02:50:04.155Z,957.7004
2023-04-18T02:51:04.679Z,957.7065
2023-04-18T02:52:05.301Z,957.7167
2023-04-18T02:53:05.736Z,957.7198
2023-04-18T02:54:06.288Z,957.7162
2023-04-18T02:55:06.897Z,957.7224
2023-04-18T02:56:07.414Z,957.7056
2023-04-18T02:57:08.134Z,957.6984
2023-04-18T02:58:08.744Z,957.7011
2023-04-18T02:59:09.283Z,957.6878
2023-04-18T03:00:09.883Z,957.6884
2023-04-18T03:01:10.381Z,957.6827
2023-04-18T03:02:11.336Z,957.6766
2023-04-18T03:03:11.368Z,957.6716
2023-04-18T03:04:12.325Z,957.6747
2023-04-18T03:05:12.705Z,957.6688
2023-04-18T03:06:13.388Z,957.6598
2023-04-18T03:07:13.766Z,957.6556
2023-04-18T03:08:14.560Z,957.6553
2023-04-18T03:09:14.939Z,957.6533
2023-04-18T03:10:15.542Z,957.6416
2023-04-18T03:11:16.087Z,957.6287
2023-04-18T03:12:16.522Z,957.6207
2023-04-18T03:13:17.108Z,957.6078
2023-04-18T03:14:17.736Z,957.6062
2023-04-18T03:15:18.122Z,957.5974
2023-04-18T03:16:18.986Z,957.5840
2023-04-18T03:17:19.744Z,957.5787
2023-04-18T03:18:20.321Z,957.5718
2023-04-18T03:19:21.059Z,957.5688
2023-04-18T03:20:21.547Z,957.5665
2023-04-18T03:21:22.144Z,957.5662
2023-04-18T03:22:22.813Z,957.5618
2023-04-18T03:23:23.314Z,957.5624
2023-04-18T03:24:23.819Z,957.5555
2023-04-18T03:25:24.183Z,957.5634
2023-04-18T03:26:24.710Z,957.5673
2023-04-18T03:27:25.258Z,957.5691
2023-04-18T03:28:25.776Z,957.5689
2023-04-18T03:29:26.409Z,957.5735
2023-04-18T03:30:27.074Z,957.5680
2023-04-18T03:31:27.767Z,957.5716
2023-04-18T03:32:28.658Z,957.5760
2023-04-18T03:33:29.309Z,957.5709
2023-04-18T03:34:29.751Z,957.5751
2023-04-18T03:35:30.430Z,957.5742
2023-04-18T03:36:30.987Z,957.5653
2023-04-18T03:37:31.523Z,957.5616
2023-04-18T03:38:32.107Z,957.5593
2023-04-18T03:39:32.545Z,957.5569
2023-04-18T03:40:33.141Z,957.5620
2023-04-18T03:41:33.682Z,957.5647
2023-04-18T03:42:34.336Z,957.5609
2023-04-18T03:43:34.991Z,957.5573
2023-04-18T03:44:36.245Z,957.5560
2023-04-18T03:45:36.825Z,957.5587
2023-04-18T03:46:38.085Z,957.5600
2023-04-18T03:47:38.997Z,957.5558
2023-04-18T03:48:40.396Z,957.5542
2023-04-18T03:50:40.259Z,957.5422
2023-04-18T03:51:40.971Z,957.5396
2023-04-18T03:52:41.371Z,957.5377
2023-04-18T03:53:41.734Z,957.5336
2023-04-18T03:54:42.886Z,957.5298
2023-04-18T03:55:43.294Z,957.5236
2023-04-18T03:56:43.978Z,957.5116
2023-04-18T03:57:44.478Z,957.5100
2023-04-18T03:58:44.906Z,957.5107
2023-04-18T03:59:47.321Z,957.5091
2023-04-18T04:00:45.772Z,957.5065
2023-04-18T04:01:46.290Z,957.5184
2023-04-18T04:02:46.812Z,957.5241
2023-04-18T04:03:47.443Z,957.5154
2023-04-18T04:04:47.505Z,957.5070
2023-04-18T04:05:48.245Z,957.5047
2023-04-18T04:06:48.945Z,957.5087
2023-04-18T04:07:49.589Z,957.5060
2023-04-18T04:08:50.145Z,957.4982
2023-04-18T04:09:50.761Z,957.4976
2023-04-18T04:10:51.184Z,957.5082
2023-04-18T04:11:51.674Z,957.5116
2023-04-18T04:12:52.282Z,957.5069
2023-04-18T04:13:52.720Z,957.5042
2023-04-18T04:14:53.930Z,957.5058
2023-04-18T04:15:54.487Z,957.5172
2023-04-18T04:16:55.307Z,957.5218
2023-04-18T04:17:56.187Z,957.5236
2023-04-18T04:18:56.949Z,957.5231
2023-04-18T04:19:57.359Z,957.5300
2023-04-18T04:20:57.939Z,957.5406
2023-04-18T04:21:58.346Z,957.5527
2023-04-18T04:22:58.948Z,957.5576
2023-04-18T04:23:59.588Z,957.5693
2023-04-18T04:25:00.304Z,957.5693
2023-04-18T04:26:00.912Z,957.5716
2023-04-18T04:27:01.557Z,957.5840
2023-04-18T04:28:02.532Z,957.5776
2023-04-18T04:29:03.201Z,957.5765
2023-04-18T04:30:03.931Z,957.5822
2023-04-18T04:31:05.025Z,957.5760
2023-04-18T04:32:05.159Z,957.5816
2023-04-18T04:33:06.129Z,957.5876
2023-04-18T04:36:07.374Z,957.5964
2023-04-18T04:37:08.144Z,957.5944
2023-04-18T04:38:08.718Z,957.6002
2023-04-18T04:39:09.454Z,957.6102
2023-04-18T04:40:10.669Z,957.6142
2023-04-18T04:41:11.593Z,957.6191
2023-04-18T04:42:12.804Z,957.6342
2023-04-18T04:43:13.888Z,957.6380
2023-04-18T04:44:14.851Z,957.6436
2023-04-18T04:45:15.429Z,957.6516
2023-04-18T04:46:16.210Z,957.6602
2023-04-18T04:47:16.801Z,957.6716
2023-04-18T04:48:17.034Z,957.6772
2023-04-18T04:49:17.935Z,957.6773
2023-04-18T04:50:18.869Z,957.6818
2023-04-18T04:51:19.674Z,957.6889
2023-04-18T04:52:20.373Z,957.6913
2023-04-18T04:53:21.000Z,957.6947
2023-04-18T04:54:21.519Z,957.6987
2023-04-18T04:55:21.985Z,957.6949
2023-04-18T04:56:22.932Z,957.6938
2023-04-18T04:57:23.615Z,957.6967
2023-04-18T04:58:24.155Z,957.7007
2023-04-18T04:59:24.792Z,957.7042
2023-04-18T05:00:25.606Z,957.7096
2023-04-18T05:01:26.423Z,957.7102
2023-04-18T05:02:26.857Z,957.7170
2023-04-18T05:03:28.747Z,957.7249
2023-04-18T05:04:29.097Z,957.7246
2023-04-18T05:05:30.202Z,957.7193
2023-04-18T05:06:30.846Z,957.7222
2023-04-18T05:07:31.836Z,957.7311
2023-04-18T05:08:32.683Z,957.7404
2023-04-18T05:09:33.267Z,957.7496
2023-04-18T05:10:33.901Z,957.7534
2023-04-18T05:11:34.585Z,957.7565
2023-04-18T05:12:35.184Z,957.7551
2023-04-18T05:13:36.160Z,957.7507
2023-04-18T05:14:36.553Z,957.7521
2023-04-18T05:15:37.463Z,957.7535
2023-04-18T05:16:37.709Z,957.7591
2023-04-18T05:17:38.745Z,957.7578
2023-04-18T05:18:39.478Z,957.7619
2023-04-18T05:19:40.340Z,957.7714
2023-04-18T05:20:41.013Z,957.7814
2023-04-18T05:21:41.731Z,957.7844
2023-04-18T05:22:43.033Z,957.7906
2023-04-18T05:23:42.859Z,957.7938
2023-04-18T05:24:43.056Z,957.7977
2023-04-18T05:25:43.713Z,957.7969
2023-04-18T05:26:44.697Z,957.7978
2023-04-18T05:27:45.946Z,957.7938
2023-04-18T05:28:46.802Z,957.7982
2023-04-18T05:29:47.579Z,957.7940
2023-04-18T05:30:48.912Z,957.7935
2023-04-18T05:31:49.906Z,957.7913
2023-04-18T05:32:50.312Z,957.7975
2023-04-18T05:33:50.334Z,957.7982
2023-04-18T05:34:51.460Z,957.8028
2023-04-18T05:35:53.496Z,957.8093
2023-04-18T05:36:53.668Z,957.8282
2023-04-18T05:37:54.476Z,957.8338
2023-04-18T05:38:55.371Z,957.8400
2023-04-18T05:39:55.938Z,957.8438
2023-04-18T05:40:56.290Z,957.8507
2023-04-18T05:41:56.724Z,957.8577
2023-04-18T05:42:57.911Z,957.8613
2023-04-18T05:44:05.261Z,957.8642
2023-04-18T05:45:02.438Z,957.8800
2023-04-18T05:48:04.054Z,957.8983
2023-04-18T05:49:04.813Z,957.8936
2023-04-18T05:50:05.567Z,957.8898
2023-04-18T05:51:06.487Z,957.8835
2023-04-18T05:52:07.678Z,957.8824
2023-04-18T05:53:08.531Z,957.8789
2023-04-18T05:54:09.151Z,957.8811
2023-04-18T05:55:09.147Z,957.8848
2023-04-18T05:56:09.647Z,957.8887
2023-04-18T05:57:10.696Z,957.8923
2023-04-18T05:58:11.356Z,957.8958
2023-04-18T05:59:11.957Z,957.8882
2023-04-18T06:00:12.666Z,957.8916
2023-04-18T06:01:13.889Z,957.8931
2023-04-18T06:02:14.722Z,957.9069
2023-04-18T06:03:16.047Z,957.9191
2023-04-18T06:04:16.809Z,957.9240
2023-04-18T06:05:17.253Z,957.9356
2023-04-18T06:06:17.934Z,957.9377
2023-04-18T06:07:18.386Z,957.9451
2023-04-18T06:08:19.212Z,957.9540
2023-04-18T06:09:19.852Z,957.9540
2023-04-18T06:10:20.556Z,957.9573
2023-04-18T06:11:21.403Z,957.9602
2023-04-18T06:12:22.324Z,957.9596
2023-04-18T06:13:22.993Z,957.9724
2023-04-18T06:14:23.828Z,957.9820
2023-04-18T06:15:25.050Z,957.9886
2023-04-18T06:16:25.974Z,958.0056
2023-04-18T06:17:25.972Z,958.0184
2023-04-18T06:18:26.915Z,958.0347
2023-04-18T06:19:27.100Z,958.0446
2023-04-18T06:20:28.323Z,958.0531
2023-04-18T06:21:28.897Z,958.0573
2023-04-18T06:22:29.982Z,958.0609
2023-04-18T06:23:30.609Z,958.0738
2023-04-18T06:24:31.357Z,958.0807
2023-04-18T06:25:31.005Z,958.0809
2023-04-18T06:26:31.502Z,958.0762
2023-04-18T06:27:34.535Z,958.0792
2023-04-18T06:28:35.388Z,958.0827
2023-04-18T06:29:36.855Z,958.0860
2023-04-18T06:30:36.220Z,958.0835
2023-04-18T06:31:37.082Z,958.0887
2023-04-18T06:32:37.932Z,958.0907
2023-04-18T06:33:38.618Z,958.0867
2023-04-18T06:34:39.866Z,958.0842
2023-04-18T06:35:40.505Z,958.0791
2023-04-18T06:36:41.153Z,958.0800
2023-04-18T06:37:41.389Z,958.0721
2023-04-18T06:38:42.077Z,958.0735
2023-04-18T06:39:42.772Z,958.0645
2023-04-18T06:40:43.518Z,958.0691
2023-04-18T06:41:44.265Z,958.0749
2023-04-18T06:42:44.756Z,958.0782
2023-04-18T06:44:01.572Z,958.0884
2023-04-18T06:44:46.870Z,958.1003
2023-04-18T06:45:47.602Z,958.1080
2023-04-18T06:46:47.677Z,958.1154
2023-04-18T06:47:48.725Z,958.1107
2023-04-18T06:48:50.434Z,958.1172
2023-04-18T06:49:49.849Z,958.1144
2023-04-18T06:50:50.594Z,958.1180
2023-04-18T06:51:51.220Z,958.1218
2023-04-18T06:52:51.798Z,958.1218
2023-04-18T06:53:52.578Z,958.1162
2023-04-18T06:54:53.379Z,958.1204
2023-04-18T06:55:54.132Z,958.1209
2023-04-18T06:56:55.303Z,958.1271
2023-04-18T06:57:56.516Z,958.1266
2023-04-18T06:58:57.321Z,958.1251
2023-04-18T06:59:58.553Z,958.1234
2023-04-18T07:00:59.191Z,958.1265
2023-04-18T07:02:00.129Z,958.1222
2023-04-18T07:03:00.733Z,958.1243
2023-04-18T07:04:00.928Z,958.1224
2023-04-18T07:05:01.336Z,958.1351
2023-04-18T07:06:01.887Z,958.1429
2023-04-18T07:07:02.691Z,958.1453
2023-04-18T07:08:03.351Z,958.1484
2023-04-18T07:09:04.107Z,958.1516
2023-04-18T07:10:04.679Z,958.1558
2023-04-18T07:11:04.699Z,958.1584
2023-04-18T07:12:05.200Z,958.1593
2023-04-18T07:13:05.751Z,958.1611
2023-04-18T07:14:06.656Z,958.1581
2023-04-18T07:15:07.717Z,958.1560
2023-04-18T07:16:08.377Z,958.1538
2023-04-18T07:17:09.054Z,958.1484
2023-04-18T07:18:10.036Z,958.1434
2023-04-18T07:19:10.939Z,958.1403
2023-04-18T07:20:12.987Z,958.1313
2023-04-18T07:21:12.436Z,958.1093
2023-04-18T07:22:13.100Z,958.1071
2023-04-18T07:23:13.597Z,958.1135
2023-04-18T07:24:14.509Z,958.1144
2023-04-18T07:25:15.385Z,958.1009
2023-04-18T07:26:15.619Z,958.0925
2023-04-18T07:27:16.353Z,958.1109
2023-04-18T07:28:17.208Z,958.1211
2023-04-18T07:29:17.675Z,958.1216
2023-04-18T07:30:18.470Z,958.1202
2023-04-18T07:31:19.331Z,958.1280
2023-04-18T07:32:20.080Z,958.1320
2023-04-18T07:33:20.895Z,958.1429
2023-04-18T07:34:21.497Z,958.1529
2023-04-18T07:35:22.119Z,958.1571
2023-04-18T07:36:22.889Z,958.1604
2023-04-18T07:37:23.549Z,958.1638
2023-04-18T07:38:24.191Z,958.1724
2023-04-18T07:39:24.818Z,958.1776
2023-04-18T07:40:25.305Z,958.1913
2023-04-18T07:41:26.032Z,958.1920
2023-04-18T07:42:26.551Z,958.2007
2023-04-18T07:43:26.689Z,958.2003
2023-04-18T07:44:26.864Z,958.2070
2023-04-18T07:45:27.257Z,958.2014
2023-04-18T07:46:27.606Z,958.2043
2023-04-18T07:47:32.242Z,958.2004
2023-04-18T07:48:31.432Z,958.2109
2023-04-18T07:49:32.530Z,958.2224
2023-04-18T07:50:33.251Z,958.2255
2023-04-18T07:51:33.673Z,958.2209
2023-04-18T07:52:34.628Z,958.2069
2023-04-18T07:53:35.275Z,958.2080
2023-04-18T07:54:35.728Z,958.1998
2023-04-18T07:55:36.322Z,958.2126
2023-04-18T07:56:36.785Z,958.2264
2023-04-18T07:57:37.478Z,958.2407
2023-04-18T07:58:38.148Z,958.2591
2023-04-18T07:59:39.316Z,958.2638
2023-04-18T08:00:39.377Z,958.2859
2023-04-18T08:01:39.996Z,958.3009
2023-04-18T08:02:41.328Z,958.3004
2023-04-18T08:03:41.267Z,958.3130
2023-04-18T08:04:41.884Z,958.3248
2023-04-18T08:05:43.021Z,958.3314
2023-04-18T08:06:43.849Z,958.3298
2023-04-18T08:07:44.798Z,958.3289
2023-04-18T08:08:45.609Z,958.3407
2023-04-18T08:09:46.771Z,958.3405
2023-04-18T08:10:47.185Z,958.3353
2023-04-18T08:11:47.874Z,958.3251
2023-04-18T08:12:48.606Z,958.3296
2023-04-18T08:13:49.318Z,958.3264
2023-04-18T08:14:50.235Z,958.3280
2023-04-18T08:15:50.966Z,958.3378
2023-04-18T08:16:51.804Z,958.3314
2023-04-18T08:17:52.388Z,958.3262
2023-04-18T08:18:53.093Z,958.3256
2023-04-18T08:19:53.703Z,958.3291
2023-04-18T08:20:54.198Z,958.3311
2023-04-18T08:21:54.887Z,958.2993
2023-04-18T08:23:06.135Z,958.2895
2023-04-18T08:24:01.983Z,958.2640
2023-04-18T08:25:05.547Z,958.2572
2023-04-18T08:26:03.792Z,958.2449
2023-04-18T08:27:04.186Z,958.2635
2023-04-18T08:28:04.882Z,958.2573
2023-04-18T08:29:05.046Z,958.2526
2023-04-18T08:30:05.868Z,958.2522
2023-04-18T08:31:06.580Z,958.2936
2023-04-18T08:32:07.484Z,958.3044
2023-04-18T08:33:08.635Z,958.3120
2023-04-18T08:34:09.271Z,958.3140
2023-04-18T08:35:09.938Z,958.3258
2023-04-18T08:36:10.559Z,958.3207
2023-04-18T08:37:11.077Z,958.3149
2023-04-18T08:38:11.524Z,958.3234
2023-04-18T08:39:12.212Z,958.3336
2023-04-18T08:40:13.283Z,958.3451
2023-04-18T08:41:13.773Z,958.3425
2023-04-18T08:42:14.485Z,958.3562
2023-04-18T08:43:14.994Z,958.3700
2023-04-18T08:44:15.741Z,958.3776
2023-04-18T08:45:16.723Z,958.3771
2023-04-18T08:46:16.973Z,958.3679
2023-04-18T08:47:18.050Z,958.3538
2023-04-18T08:48:19.102Z,958.3475
2023-04-18T08:49:20.173Z,958.3668
2023-04-18T08:50:20.375Z,958.3682
2023-04-18T08:51:20.450Z,958.4000
2023-04-18T08:52:21.023Z,958.4147
2023-04-18T08:53:21.936Z,958.4147
2023-04-18T08:54:22.483Z,958.4378
2023-04-18T08:55:23.357Z,958.4384
2023-04-18T08:56:23.959Z,958.4422
2023-04-18T08:57:24.502Z,958.4418
2023-04-18T08:58:25.409Z,958.4387
2023-04-18T08:59:26.501Z,958.4553
2023-04-18T09:00:27.587Z,958.4652
2023-04-18T09:01:28.382Z,958.4649
2023-04-18T09:02:29.345Z,958.4573
2023-04-18T09:03:29.938Z,958.4614
2023-04-18T09:04:30.826Z,958.4529
2023-04-18T09:05:32.110Z,958.4622
2023-04-18T09:06:32.238Z,958.4635
2023-04-18T09:07:32.953Z,958.4542
2023-04-18T09:08:34.221Z,958.4493
2023-04-18T09:09:35.008Z,958.4633
2023-04-18T09:10:36.787Z,958.4682
2023-04-18T09:11:36.548Z,958.4700
2023-04-18T09:12:37.255Z,958.4702
2023-04-18T09:13:38.439Z,958.4649
2023-04-18T09:14:38.916Z,958.4633
2023-04-18T09:15:39.631Z,958.4489
2023-04-18T09:16:40.783Z,958.4282
2023-04-18T09:17:41.597Z,958.4260
2023-04-18T09:18:42.348Z,958.4111
2023-04-18T09:19:42.752Z,958.4032
2023-04-18T09:20:43.355Z,958.3995
2023-04-18T09:21:44.008Z,958.4131
2023-04-18T09:22:44.844Z,958.4166
2023-04-18T09:23:45.546Z,958.4113
2023-04-18T09:24:46.796Z,958.4075
2023-04-18T09:25:47.797Z,958.4095
2023-04-18T09:26:48.547Z,958.4014
2023-04-18T09:27:48.912Z,958.3927
2023-04-18T09:28:51.219Z,958.3922
2023-04-18T09:29:50.129Z,958.4009
2023-04-18T09:30:50.747Z,958.3956
2023-04-18T09:31:51.693Z,958.3936
2023-04-18T09:32:52.227Z,958.4093
2023-04-18T09:33:53.221Z,958.4193
2023-04-18T09:34:53.908Z,958.4269
2023-04-18T09:35:54.850Z,958.4225
2023-04-18T09:36:55.805Z,958.4307
2023-04-18T09:37:56.857Z,958.4100
2023-04-18T09:38:57.529Z,958.4102
2023-04-18T09:39:58.302Z,958.4209
2023-04-18T09:40:59.080Z,958.4329
2023-04-18T09:41:59.414Z,958.4465
2023-04-18T09:43:00.180Z,958.4518
2023-04-18T09:44:00.682Z,958.4418
2023-04-18T09:45:01.373Z,958.4468
2023-04-18T09:46:02.424Z,958.4675
2023-04-18T09:47:03.195Z,958.4761
2023-04-18T09:48:03.916Z,958.4602
2023-04-18T09:49:04.614Z,958.4811
2023-04-18T09:50:05.922Z,958.4853
2023-04-18T09:51:06.446Z,958.4847
2023-04-18T09:52:07.079Z,958.4976
2023-04-18T09:53:07.477Z,958.4891
2023-04-18T09:54:08.462Z,958.5054
2023-04-18T09:55:08.718Z,958.4928
2023-04-18T09:56:09.408Z,958.5027
2023-04-18T09:57:10.353Z,958.5020
2023-04-18T09:58:10.899Z,958.5040
2023-04-18T09:59:11.590Z,958.5042
2023-04-18T10:00:12.406Z,958.5024
2023-04-18T10:01:12.494Z,958.5050
2023-04-18T10:02:13.761Z,958.4720
2023-04-18T10:03:14.846Z,958.4740
2023-04-18T10:04:15.725Z,958.4752
2023-04-18T10:05:17.244Z,958.4779
2023-04-18T10:06:16.407Z,958.4705
2023-04-18T10:07:17.025Z,958.4831
2023-04-18T10:08:17.592Z,958.4842
2023-04-18T10:09:18.014Z,958.4751
2023-04-18T10:10:18.644Z,958.4567
2023-04-18T10:11:20.320Z,958.4503
2023-04-18T10:12:19.890Z,958.4312
2023-04-18T10:13:20.641Z,958.4440
2023-04-18T10:14:21.836Z,958.4547
2023-04-18T10:15:22.476Z,958.4560
2023-04-18T10:16:23.459Z,958.4667
2023-04-18T10:17:23.481Z,958.4667
2023-04-18T10:18:24.609Z,958.4813
2023-04-18T10:19:24.534Z,958.4904
2023-04-18T10:20:25.101Z,958.5051
2023-04-18T10:21:25.639Z,958.4844
2023-04-18T10:22:26.218Z,958.5062
2023-04-18T10:23:28.095Z,958.4800
2023-04-18T10:24:27.512Z,958.4648
2023-04-18T10:25:28.045Z,958.4733
2023-04-18T10:26:28.693Z,958.4702
2023-04-18T10:27:29.346Z,958.4716
2023-04-18T10:28:29.840Z,958.4620
2023-04-18T10:29:30.805Z,958.4644
2023-04-18T10:30:31.218Z,958.4727
2023-04-18T10:31:32.250Z,958.4782
2023-04-18T10:32:32.902Z,958.4907
2023-04-18T10:33:33.669Z,958.4955
2023-04-18T10:34:33.463Z,958.5118
2023-04-18T10:35:33.486Z,958.5057
2023-04-18T10:36:34.972Z,958.4869
2023-04-18T10:38:34.758Z,958.4833
2023-04-18T10:39:35.326Z,958.4831
2023-04-18T10:40:36.093Z,958.4609
2023-04-18T10:41:36.048Z,958.4757
2023-04-18T10:43:00.314Z,958.4635
2023-04-18T10:44:00.553Z,958.4543
2023-04-18T10:45:01.093Z,958.4602
2023-04-18T10:46:01.754Z,958.4291
2023-04-18T10:47:02.680Z,958.4314
2023-04-18T10:48:03.062Z,958.4136
2023-04-18T10:49:03.219Z,958.4146
2023-04-18T10:50:08.431Z,958.4002
2023-04-18T10:51:09.113Z,958.4042
2023-04-18T10:52:11.766Z,958.3978
2023-04-18T10:53:10.501Z,958.3831
2023-04-18T10:54:11.030Z,958.3642
2023-04-18T10:55:12.266Z,958.3480
2023-04-18T10:56:12.938Z,958.3087
2023-04-18T10:57:13.500Z,958.2887
2023-04-18T10:58:14.177Z,958.3035
2023-04-18T10:59:14.720Z,958.3203
2023-04-18T11:00:15.336Z,958.3242
2023-04-18T11:01:16.508Z,958.3171
2023-04-18T11:02:17.603Z,958.3122
2023-04-18T11:03:17.709Z,958.3112
2023-04-18T11:04:18.092Z,958.3212
2023-04-18T11:05:17.953Z,958.2933
2023-04-18T11:06:18.691Z,958.3173
2023-04-18T11:07:19.181Z,958.3293
2023-04-18T11:08:19.848Z,958.3082
2023-04-18T11:09:20.429Z,958.2909
2023-04-18T11:10:21.025Z,958.2778
2023-04-18T11:11:22.244Z,958.2669
2023-04-18T11:12:22.776Z,958.2549
2023-04-18T11:13:22.822Z,958.2522
2023-04-18T11:14:23.601Z,958.2615
2023-04-18T11:15:24.430Z,958.2631
2023-04-18T11:16:25.177Z,958.2571
2023-04-18T11:17:26.241Z,958.2535
2023-04-18T11:18:26.283Z,958.2541
2023-04-18T11:19:27.093Z,958.2691
2023-04-18T11:20:28.255Z,958.2565
2023-04-18T11:21:30.463Z,958.2482
2023-04-18T11:22:29.087Z,958.2428
2023-04-18T11:23:30.062Z,958.2407
2023-04-18T11:24:30.015Z,958.2372
2023-04-18T11:25:30.710Z,958.2545
2023-04-18T11:26:31.384Z,958.2397
2023-04-18T11:27:31.585Z,958.2300
2023-04-18T11:28:32.468Z,958.2311
2023-04-18T11:29:33.174Z,958.2413
2023-04-18T11:30:33.957Z,958.2162
2023-04-18T11:31:34.962Z,958.2466
2023-04-18T11:32:35.011Z,958.2363
2023-04-18T11:33:35.795Z,958.2300
2023-04-18T11:34:36.541Z,958.2382
2023-04-18T11:35:37.296Z,958.2462
2023-04-18T11:36:37.735Z,958.2553
2023-04-18T11:37:38.487Z,958.2591
2023-04-18T11:38:39.288Z,958.2784
2023-04-18T11:39:39.850Z,958.2451
2023-04-18T11:40:40.650Z,958.2507
2023-04-18T11:41:41.057Z,958.2545
2023-04-18T11:42:41.810Z,958.2598
2023-04-18T11:43:42.530Z,958.2764
2023-04-18T11:44:43.329Z,958.2598
2023-04-18T11:45:43.967Z,958.2858
2023-04-18T11:46:45.035Z,958.2698
2023-04-18T11:47:45.606Z,958.2527
2023-04-18T11:48:46.248Z,958.2487
2023-04-18T11:49:47.362Z,958.2791
2023-04-18T11:50:48.629Z,958.2922
2023-04-18T11:51:49.880Z,958.3069
2023-04-18T11:52:51.139Z,958.2920
2023-04-18T11:53:52.225Z,958.2991
2023-04-18T11:54:52.823Z,958.2927
2023-04-18T11:55:53.394Z,958.3080
2023-04-18T11:56:54.297Z,958.2833
2023-04-18T11:57:55.005Z,958.2469
2023-04-18T11:58:56.171Z,958.2316